sensor_id;sensor_type;location;lat;lon;timestamp;P1;durP1;ratioP1;P2;durP2;ratioP2
73585;SDS011;61865;50.232;18.614;2024-03-08T00:01:45;53.10;;;25.25;;
73585;SDS011;61865;50.232;18.614;2024-03-08T00:04:08;52.45;;;25.40;;
73585;SDS011;61865;50.232;18.614;2024-03-08T00:06:30;39.78;;;24.15;;
73585;SDS011;61865;50.232;18.614;2024-03-08T00:08:53;56.22;;;26.17;;
73585;SDS011;61865;50.232;18.614;2024-03-08T00:11:16;44.53;;;24.45;;
73585;SDS011;61865;50.232;18.614;2024-03-08T00:13:38;44.95;;;23.92;;
73585;SDS011;61865;50.232;18.614;2024-03-08T00:16:00;42.00;;;25.73;;
73585;SDS011;61865;50.232;18.614;2024-03-08T00:18:24;47.92;;;27.10;;
73585;SDS011;61865;50.232;18.614;2024-03-08T00:20:46;46.30;;;21.48;;
73585;SDS011;61865;50.232;18.614;2024-03-08T00:23:09;49.92;;;24.63;;
73585;SDS011;61865;50.232;18.614;2024-03-08T00:25:31;48.83;;;25.98;;
73585;SDS011;61865;50.232;18.614;2024-03-08T00:27:54;56.70;;;25.88;;
73585;SDS011;61865;50.232;18.614;2024-03-08T00:30:16;48.90;;;27.17;;
73585;SDS011;61865;50.232;18.614;2024-03-08T00:32:39;51.20;;;26.73;;
73585;SDS011;61865;50.232;18.614;2024-03-08T00:35:02;43.88;;;23.05;;
73585;SDS011;61865;50.232;18.614;2024-03-08T00:37:27;34.63;;;19.77;;
73585;SDS011;61865;50.232;18.614;2024-03-08T00:39:49;41.05;;;21.88;;
73585;SDS011;61865;50.232;18.614;2024-03-08T00:42:12;49.72;;;23.48;;
73585;SDS011;61865;50.232;18.614;2024-03-08T00:44:34;41.60;;;22.42;;
73585;SDS011;61865;50.232;18.614;2024-03-08T00:46:56;50.22;;;26.63;;
73585;SDS011;61865;50.232;18.614;2024-03-08T00:49:19;55.45;;;25.45;;
73585;SDS011;61865;50.232;18.614;2024-03-08T00:51:43;50.05;;;25.42;;
73585;SDS011;61865;50.232;18.614;2024-03-08T00:54:05;47.97;;;22.70;;
73585;SDS011;61865;50.232;18.614;2024-03-08T00:56:27;46.05;;;23.42;;
73585;SDS011;61865;50.232;18.614;2024-03-08T00:58:50;45.60;;;24.30;;
73585;SDS011;61865;50.232;18.614;2024-03-08T01:01:13;44.78;;;24.33;;
73585;SDS011;61865;50.232;18.614;2024-03-08T01:03:36;48.53;;;27.35;;
73585;SDS011;61865;50.232;18.614;2024-03-08T01:05:58;45.45;;;24.60;;
73585;SDS011;61865;50.232;18.614;2024-03-08T01:08:22;56.40;;;25.45;;
73585;SDS011;61865;50.232;18.614;2024-03-08T01:10:44;43.88;;;25.15;;
73585;SDS011;61865;50.232;18.614;2024-03-08T01:13:07;48.38;;;22.80;;
73585;SDS011;61865;50.232;18.614;2024-03-08T01:15:29;41.72;;;21.08;;
73585;SDS011;61865;50.232;18.614;2024-03-08T01:17:52;43.08;;;22.35;;
73585;SDS011;61865;50.232;18.614;2024-03-08T01:20:14;44.67;;;24.27;;
73585;SDS011;61865;50.232;18.614;2024-03-08T01:22:38;45.53;;;25.15;;
73585;SDS011;61865;50.232;18.614;2024-03-08T01:25:01;45.58;;;23.50;;
73585;SDS011;61865;50.232;18.614;2024-03-08T01:27:24;29.13;;;20.02;;
73585;SDS011;61865;50.232;18.614;2024-03-08T01:29:47;26.75;;;17.02;;
73585;SDS011;61865;50.232;18.614;2024-03-08T01:32:09;41.25;;;20.38;;
73585;SDS011;61865;50.232;18.614;2024-03-08T01:34:32;40.10;;;20.42;;
73585;SDS011;61865;50.232;18.614;2024-03-08T01:49:28;27.02;;;12.57;;
73585;SDS011;61865;50.232;18.614;2024-03-08T01:51:51;38.13;;;22.80;;
73585;SDS011;61865;50.232;18.614;2024-03-08T01:54:14;33.90;;;19.58;;
73585;SDS011;61865;50.232;18.614;2024-03-08T01:56:37;30.90;;;18.20;;
73585;SDS011;61865;50.232;18.614;2024-03-08T01:59:00;28.63;;;15.60;;
73585;SDS011;61865;50.232;18.614;2024-03-08T02:01:23;22.63;;;14.30;;
73585;SDS011;61865;50.232;18.614;2024-03-08T02:03:45;26.23;;;16.88;;
73585;SDS011;61865;50.232;18.614;2024-03-08T02:06:09;27.88;;;15.55;;
73585;SDS011;61865;50.232;18.614;2024-03-08T02:08:31;18.02;;;12.30;;
73585;SDS011;61865;50.232;18.614;2024-03-08T02:10:54;27.65;;;18.67;;
73585;SDS011;61865;50.232;18.614;2024-03-08T02:13:17;17.70;;;11.50;;
73585;SDS011;61865;50.232;18.614;2024-03-08T02:15:52;33.88;;;18.95;;
73585;SDS011;61865;50.232;18.614;2024-03-08T02:18:14;29.85;;;16.55;;
73585;SDS011;61865;50.232;18.614;2024-03-08T02:20:38;25.50;;;15.40;;
73585;SDS011;61865;50.232;18.614;2024-03-08T02:23:00;14.25;;;9.10;;
73585;SDS011;61865;50.232;18.614;2024-03-08T02:25:23;31.15;;;19.15;;
73585;SDS011;61865;50.232;18.614;2024-03-08T02:27:45;16.83;;;11.48;;
73585;SDS011;61865;50.232;18.614;2024-03-08T02:30:08;17.25;;;12.23;;
73585;SDS011;61865;50.232;18.614;2024-03-08T02:32:32;34.53;;;15.25;;
73585;SDS011;61865;50.232;18.614;2024-03-08T02:34:56;17.23;;;12.15;;
73585;SDS011;61865;50.232;18.614;2024-03-08T02:37:21;25.27;;;14.93;;
73585;SDS011;61865;50.232;18.614;2024-03-08T02:39:43;27.15;;;12.95;;
73585;SDS011;61865;50.232;18.614;2024-03-08T02:42:06;19.23;;;14.07;;
73585;SDS011;61865;50.232;18.614;2024-03-08T02:44:28;25.80;;;17.40;;
73585;SDS011;61865;50.232;18.614;2024-03-08T02:46:51;41.35;;;20.95;;
73585;SDS011;61865;50.232;18.614;2024-03-08T02:49:15;36.28;;;20.42;;
73585;SDS011;61865;50.232;18.614;2024-03-08T02:51:37;41.47;;;24.38;;
73585;SDS011;61865;50.232;18.614;2024-03-08T02:54:02;45.15;;;24.25;;
73585;SDS011;61865;50.232;18.614;2024-03-08T05:08:29;36.88;;;20.13;;
73585;SDS011;61865;50.232;18.614;2024-03-08T05:10:51;27.75;;;17.60;;
73585;SDS011;61865;50.232;18.614;2024-03-08T05:13:14;31.55;;;16.70;;
73585;SDS011;61865;50.232;18.614;2024-03-08T05:15:38;42.35;;;20.98;;
73585;SDS011;61865;50.232;18.614;2024-03-08T05:18:00;36.22;;;18.13;;
73585;SDS011;61865;50.232;18.614;2024-03-08T05:20:22;32.67;;;19.27;;
73585;SDS011;61865;50.232;18.614;2024-03-08T05:22:46;25.27;;;15.85;;
73585;SDS011;61865;50.232;18.614;2024-03-08T05:25:09;33.35;;;17.95;;
73585;SDS011;61865;50.232;18.614;2024-03-08T05:27:32;34.55;;;18.58;;
73585;SDS011;61865;50.232;18.614;2024-03-08T05:29:54;35.65;;;20.50;;
73585;SDS011;61865;50.232;18.614;2024-03-08T05:32:16;36.60;;;18.35;;
73585;SDS011;61865;50.232;18.614;2024-03-08T05:34:39;23.90;;;14.45;;
73585;SDS011;61865;50.232;18.614;2024-03-08T05:37:01;19.95;;;13.07;;
73585;SDS011;61865;50.232;18.614;2024-03-08T05:39:24;40.58;;;19.95;;
73585;SDS011;61865;50.232;18.614;2024-03-08T05:41:47;28.25;;;15.65;;
73585;SDS011;61865;50.232;18.614;2024-03-08T05:44:10;37.75;;;19.15;;
73585;SDS011;61865;50.232;18.614;2024-03-08T05:46:33;30.58;;;16.70;;
73585;SDS011;61865;50.232;18.614;2024-03-08T05:48:56;14.43;;;10.50;;
73585;SDS011;61865;50.232;18.614;2024-03-08T05:51:19;8.38;;;7.50;;
73585;SDS011;61865;50.232;18.614;2024-03-08T05:53:42;12.57;;;7.95;;
73585;SDS011;61865;50.232;18.614;2024-03-08T05:56:04;19.63;;;12.25;;
73585;SDS011;61865;50.232;18.614;2024-03-08T05:58:28;18.77;;;13.55;;
73585;SDS011;61865;50.232;18.614;2024-03-08T06:00:51;23.20;;;13.70;;
73585;SDS011;61865;50.232;18.614;2024-03-08T06:03:13;27.42;;;15.32;;
73585;SDS011;61865;50.232;18.614;2024-03-08T06:05:36;39.50;;;20.00;;
73585;SDS011;61865;50.232;18.614;2024-03-08T06:08:02;18.73;;;13.10;;
73585;SDS011;61865;50.232;18.614;2024-03-08T06:10:24;15.30;;;10.52;;
73585;SDS011;61865;50.232;18.614;2024-03-08T06:12:47;28.02;;;17.92;;
73585;SDS011;61865;50.232;18.614;2024-03-08T06:27:44;40.35;;;22.42;;
73585;SDS011;61865;50.232;18.614;2024-03-08T06:30:07;32.10;;;17.40;;
73585;SDS011;61865;50.232;18.614;2024-03-08T06:32:30;18.38;;;12.63;;
73585;SDS011;61865;50.232;18.614;2024-03-08T06:34:55;24.98;;;19.20;;
73585;SDS011;61865;50.232;18.614;2024-03-08T06:37:17;35.75;;;18.33;;
73585;SDS011;61865;50.232;18.614;2024-03-08T06:39:41;30.92;;;19.17;;
73585;SDS011;61865;50.232;18.614;2024-03-08T06:42:04;12.48;;;8.65;;
73585;SDS011;61865;50.232;18.614;2024-03-08T06:44:28;22.52;;;14.57;;
73585;SDS011;61865;50.232;18.614;2024-03-08T06:46:51;25.05;;;13.82;;
73585;SDS011;61865;50.232;18.614;2024-03-08T06:49:13;25.80;;;16.10;;
73585;SDS011;61865;50.232;18.614;2024-03-08T06:51:35;20.40;;;13.30;;
73585;SDS011;61865;50.232;18.614;2024-03-08T06:53:57;35.25;;;22.02;;
73585;SDS011;61865;50.232;18.614;2024-03-08T06:56:20;31.48;;;17.80;;
73585;SDS011;61865;50.232;18.614;2024-03-08T06:58:42;21.45;;;13.63;;
73585;SDS011;61865;50.232;18.614;2024-03-08T07:01:06;33.78;;;18.85;;
73585;SDS011;61865;50.232;18.614;2024-03-08T07:03:33;19.08;;;12.88;;
73585;SDS011;61865;50.232;18.614;2024-03-08T07:05:56;21.88;;;12.43;;
73585;SDS011;61865;50.232;18.614;2024-03-08T07:08:18;14.27;;;10.27;;
73585;SDS011;61865;50.232;18.614;2024-03-08T07:10:42;17.10;;;12.57;;
73585;SDS011;61865;50.232;18.614;2024-03-08T07:13:05;26.95;;;16.95;;
73585;SDS011;61865;50.232;18.614;2024-03-08T07:15:27;24.08;;;16.25;;
73585;SDS011;61865;50.232;18.614;2024-03-08T07:17:51;11.75;;;9.07;;
73585;SDS011;61865;50.232;18.614;2024-03-08T07:20:13;15.07;;;10.52;;
73585;SDS011;61865;50.232;18.614;2024-03-08T07:22:38;21.58;;;12.77;;
73585;SDS011;61865;50.232;18.614;2024-03-08T07:25:01;30.33;;;18.90;;
73585;SDS011;61865;50.232;18.614;2024-03-08T07:27:39;18.50;;;11.75;;
73585;SDS011;61865;50.232;18.614;2024-03-08T07:30:01;13.38;;;10.93;;
73585;SDS011;61865;50.232;18.614;2024-03-08T07:32:24;40.83;;;21.83;;
73585;SDS011;61865;50.232;18.614;2024-03-08T07:34:48;16.95;;;11.50;;
73585;SDS011;61865;50.232;18.614;2024-03-08T07:37:10;32.60;;;17.73;;
73585;SDS011;61865;50.232;18.614;2024-03-08T07:39:33;32.83;;;15.45;;
73585;SDS011;61865;50.232;18.614;2024-03-08T07:41:56;23.45;;;14.20;;
73585;SDS011;61865;50.232;18.614;2024-03-08T07:44:19;14.90;;;10.88;;
73585;SDS011;61865;50.232;18.614;2024-03-08T07:46:41;25.98;;;16.85;;
73585;SDS011;61865;50.232;18.614;2024-03-08T07:49:03;15.98;;;10.68;;
73585;SDS011;61865;50.232;18.614;2024-03-08T07:51:27;21.00;;;15.27;;
73585;SDS011;61865;50.232;18.614;2024-03-08T07:53:48;32.85;;;19.42;;
73585;SDS011;61865;50.232;18.614;2024-03-08T07:56:11;41.17;;;23.98;;
73585;SDS011;61865;50.232;18.614;2024-03-08T07:58:33;30.02;;;21.08;;
73585;SDS011;61865;50.232;18.614;2024-03-08T08:00:56;31.15;;;19.25;;
73585;SDS011;61865;50.232;18.614;2024-03-08T08:03:18;45.05;;;24.10;;
73585;SDS011;61865;50.232;18.614;2024-03-08T08:05:41;32.30;;;18.50;;
73585;SDS011;61865;50.232;18.614;2024-03-08T08:08:05;37.75;;;19.80;;
73585;SDS011;61865;50.232;18.614;2024-03-08T08:10:27;32.83;;;19.52;;
73585;SDS011;61865;50.232;18.614;2024-03-08T08:12:49;35.17;;;19.10;;
73585;SDS011;61865;50.232;18.614;2024-03-08T08:15:12;22.10;;;14.25;;
73585;SDS011;61865;50.232;18.614;2024-03-08T08:17:35;28.90;;;19.00;;
73585;SDS011;61865;50.232;18.614;2024-03-08T08:19:58;31.65;;;17.67;;
73585;SDS011;61865;50.232;18.614;2024-03-08T08:22:21;11.82;;;9.52;;
73585;SDS011;61865;50.232;18.614;2024-03-08T08:24:45;12.30;;;9.73;;
73585;SDS011;61865;50.232;18.614;2024-03-08T08:27:07;22.77;;;15.73;;
73585;SDS011;61865;50.232;18.614;2024-03-08T08:29:29;16.67;;;10.20;;
73585;SDS011;61865;50.232;18.614;2024-03-08T08:31:53;6.70;;;6.03;;
73585;SDS011;61865;50.232;18.614;2024-03-08T08:34:15;18.17;;;12.35;;
73585;SDS011;61865;50.232;18.614;2024-03-08T08:36:39;27.48;;;18.63;;
73585;SDS011;61865;50.232;18.614;2024-03-08T08:39:01;23.98;;;15.45;;
73585;SDS011;61865;50.232;18.614;2024-03-08T08:41:25;30.38;;;18.92;;
73585;SDS011;61865;50.232;18.614;2024-03-08T08:43:49;23.00;;;15.32;;
73585;SDS011;61865;50.232;18.614;2024-03-08T08:46:11;30.80;;;19.80;;
73585;SDS011;61865;50.232;18.614;2024-03-08T08:48:34;20.17;;;12.32;;
73585;SDS011;61865;50.232;18.614;2024-03-08T08:50:56;19.95;;;14.30;;
73585;SDS011;61865;50.232;18.614;2024-03-08T08:53:19;31.83;;;20.42;;
73585;SDS011;61865;50.232;18.614;2024-03-08T08:55:42;26.48;;;14.38;;
73585;SDS011;61865;50.232;18.614;2024-03-08T08:58:07;20.83;;;12.77;;
73585;SDS011;61865;50.232;18.614;2024-03-08T09:00:29;12.90;;;8.77;;
73585;SDS011;61865;50.232;18.614;2024-03-08T09:02:52;25.75;;;15.30;;
73585;SDS011;61865;50.232;18.614;2024-03-08T09:05:17;30.30;;;18.33;;
73585;SDS011;61865;50.232;18.614;2024-03-08T09:07:41;23.55;;;15.18;;
73585;SDS011;61865;50.232;18.614;2024-03-08T09:10:05;31.92;;;15.48;;
73585;SDS011;61865;50.232;18.614;2024-03-08T09:12:29;31.42;;;19.13;;
73585;SDS011;61865;50.232;18.614;2024-03-08T09:14:54;26.83;;;16.38;;
73585;SDS011;61865;50.232;18.614;2024-03-08T09:17:16;16.10;;;10.23;;
73585;SDS011;61865;50.232;18.614;2024-03-08T09:19:40;30.10;;;17.30;;
73585;SDS011;61865;50.232;18.614;2024-03-08T09:22:03;28.92;;;17.17;;
73585;SDS011;61865;50.232;18.614;2024-03-08T09:24:25;18.17;;;11.95;;
73585;SDS011;61865;50.232;18.614;2024-03-08T09:26:47;32.40;;;17.10;;
73585;SDS011;61865;50.232;18.614;2024-03-08T09:29:10;35.47;;;19.67;;
73585;SDS011;61865;50.232;18.614;2024-03-08T09:31:34;33.08;;;20.85;;
73585;SDS011;61865;50.232;18.614;2024-03-08T09:33:58;27.80;;;16.73;;
73585;SDS011;61865;50.232;18.614;2024-03-08T09:36:20;30.88;;;18.45;;
73585;SDS011;61865;50.232;18.614;2024-03-08T09:38:42;32.67;;;19.65;;
73585;SDS011;61865;50.232;18.614;2024-03-08T09:41:05;21.25;;;12.40;;
73585;SDS011;61865;50.232;18.614;2024-03-08T09:43:29;24.85;;;15.10;;
73585;SDS011;61865;50.232;18.614;2024-03-08T09:58:20;33.80;;;21.52;;
73585;SDS011;61865;50.232;18.614;2024-03-08T10:01:15;27.83;;;15.88;;
73585;SDS011;61865;50.232;18.614;2024-03-08T10:03:38;29.88;;;19.05;;
73585;SDS011;61865;50.232;18.614;2024-03-08T10:06:01;22.40;;;14.15;;
73585;SDS011;61865;50.232;18.614;2024-03-08T10:08:23;17.45;;;9.95;;
73585;SDS011;61865;50.232;18.614;2024-03-08T10:10:46;14.43;;;9.85;;
73585;SDS011;61865;50.232;18.614;2024-03-08T10:13:09;19.33;;;12.63;;
73585;SDS011;61865;50.232;18.614;2024-03-08T10:15:34;28.52;;;16.73;;
73585;SDS011;61865;50.232;18.614;2024-03-08T10:17:58;30.15;;;18.02;;
73585;SDS011;61865;50.232;18.614;2024-03-08T10:20:22;24.55;;;14.57;;
73585;SDS011;61865;50.232;18.614;2024-03-08T10:22:46;15.20;;;10.65;;
73585;SDS011;61865;50.232;18.614;2024-03-08T10:25:09;26.98;;;17.58;;
73585;SDS011;61865;50.232;18.614;2024-03-08T10:27:32;25.73;;;16.42;;
73585;SDS011;61865;50.232;18.614;2024-03-08T10:29:55;42.83;;;19.60;;
73585;SDS011;61865;50.232;18.614;2024-03-08T10:32:17;35.50;;;18.60;;
73585;SDS011;61865;50.232;18.614;2024-03-08T10:34:41;19.40;;;13.38;;
73585;SDS011;61865;50.232;18.614;2024-03-08T10:37:04;25.75;;;11.57;;
73585;SDS011;61865;50.232;18.614;2024-03-08T10:39:27;25.10;;;15.50;;
73585;SDS011;61865;50.232;18.614;2024-03-08T10:41:52;15.00;;;9.95;;
73585;SDS011;61865;50.232;18.614;2024-03-08T10:44:17;19.98;;;12.98;;
73585;SDS011;61865;50.232;18.614;2024-03-08T10:46:47;26.02;;;15.10;;
73585;SDS011;61865;50.232;18.614;2024-03-08T10:49:12;17.80;;;11.13;;
73585;SDS011;61865;50.232;18.614;2024-03-08T10:51:40;14.73;;;10.65;;
73585;SDS011;61865;50.232;18.614;2024-03-08T10:54:02;24.48;;;16.25;;
73585;SDS011;61865;50.232;18.614;2024-03-08T10:56:25;25.67;;;15.27;;
73585;SDS011;61865;50.232;18.614;2024-03-08T10:58:48;16.25;;;11.25;;
73585;SDS011;61865;50.232;18.614;2024-03-08T11:01:11;25.02;;;15.82;;
73585;SDS011;61865;50.232;18.614;2024-03-08T11:03:46;22.63;;;14.95;;
73585;SDS011;61865;50.232;18.614;2024-03-08T11:06:16;13.85;;;10.40;;
73585;SDS011;61865;50.232;18.614;2024-03-08T11:08:43;31.45;;;16.27;;
73585;SDS011;61865;50.232;18.614;2024-03-08T11:11:06;33.20;;;18.60;;
73585;SDS011;61865;50.232;18.614;2024-03-08T11:13:47;34.70;;;19.20;;
73585;SDS011;61865;50.232;18.614;2024-03-08T11:16:09;32.15;;;20.98;;
73585;SDS011;61865;50.232;18.614;2024-03-08T11:18:32;20.75;;;11.95;;
73585;SDS011;61865;50.232;18.614;2024-03-08T11:20:55;25.15;;;15.18;;
73585;SDS011;61865;50.232;18.614;2024-03-08T11:23:17;29.00;;;19.05;;
73585;SDS011;61865;50.232;18.614;2024-03-08T11:25:47;29.83;;;18.42;;
73585;SDS011;61865;50.232;18.614;2024-03-08T11:28:13;30.35;;;16.48;;
73585;SDS011;61865;50.232;18.614;2024-03-08T11:30:37;29.60;;;20.00;;
73585;SDS011;61865;50.232;18.614;2024-03-08T11:33:02;35.80;;;19.80;;
73585;SDS011;61865;50.232;18.614;2024-03-08T11:35:24;34.97;;;22.88;;
73585;SDS011;61865;50.232;18.614;2024-03-08T11:37:47;31.88;;;20.05;;
73585;SDS011;61865;50.232;18.614;2024-03-08T11:40:11;34.88;;;21.00;;
73585;SDS011;61865;50.232;18.614;2024-03-08T11:42:37;37.45;;;22.15;;
73585;SDS011;61865;50.232;18.614;2024-03-08T11:44:59;39.47;;;22.25;;
73585;SDS011;61865;50.232;18.614;2024-03-08T11:47:24;35.33;;;21.73;;
73585;SDS011;61865;50.232;18.614;2024-03-08T11:49:46;31.80;;;21.50;;
73585;SDS011;61865;50.232;18.614;2024-03-08T11:52:10;34.17;;;18.83;;
73585;SDS011;61865;50.232;18.614;2024-03-08T11:54:33;33.03;;;19.92;;
73585;SDS011;61865;50.232;18.614;2024-03-08T11:56:56;30.45;;;18.23;;
73585;SDS011;61865;50.232;18.614;2024-03-08T11:59:22;12.85;;;9.25;;
73585;SDS011;61865;50.232;18.614;2024-03-08T12:01:56;28.70;;;17.00;;
73585;SDS011;61865;50.232;18.614;2024-03-08T12:04:18;38.65;;;20.83;;
73585;SDS011;61865;50.232;18.614;2024-03-08T12:06:44;30.00;;;20.42;;
73585;SDS011;61865;50.232;18.614;2024-03-08T12:09:08;33.03;;;20.13;;
73585;SDS011;61865;50.232;18.614;2024-03-08T12:11:31;33.83;;;20.88;;
73585;SDS011;61865;50.232;18.614;2024-03-08T12:13:56;33.75;;;19.77;;
73585;SDS011;61865;50.232;18.614;2024-03-08T13:18:04;29.52;;;17.50;;
73585;SDS011;61865;50.232;18.614;2024-03-08T13:20:29;33.40;;;19.85;;
73585;SDS011;61865;50.232;18.614;2024-03-08T13:22:51;30.33;;;18.90;;
73585;SDS011;61865;50.232;18.614;2024-03-08T13:25:14;31.98;;;18.02;;
73585;SDS011;61865;50.232;18.614;2024-03-08T13:27:36;32.63;;;19.33;;
73585;SDS011;61865;50.232;18.614;2024-03-08T13:29:59;30.70;;;18.75;;
73585;SDS011;61865;50.232;18.614;2024-03-08T13:32:22;29.25;;;18.75;;
73585;SDS011;61865;50.232;18.614;2024-03-08T13:34:46;29.58;;;18.70;;
73585;SDS011;61865;50.232;18.614;2024-03-08T13:37:11;30.05;;;18.58;;
73585;SDS011;61865;50.232;18.614;2024-03-08T13:39:36;31.20;;;18.90;;
73585;SDS011;61865;50.232;18.614;2024-03-08T13:42:03;32.42;;;19.80;;
73585;SDS011;61865;50.232;18.614;2024-03-08T13:44:29;35.17;;;20.92;;
73585;SDS011;61865;50.232;18.614;2024-03-08T13:46:52;31.85;;;19.63;;
73585;SDS011;61865;50.232;18.614;2024-03-08T13:49:14;35.92;;;19.48;;
73585;SDS011;61865;50.232;18.614;2024-03-08T13:51:38;30.23;;;18.88;;
73585;SDS011;61865;50.232;18.614;2024-03-08T13:54:00;25.45;;;15.10;;
73585;SDS011;61865;50.232;18.614;2024-03-08T13:56:26;35.88;;;19.50;;
73585;SDS011;61865;50.232;18.614;2024-03-08T13:58:50;36.17;;;19.80;;
73585;SDS011;61865;50.232;18.614;2024-03-08T14:01:12;33.10;;;20.38;;
73585;SDS011;61865;50.232;18.614;2024-03-08T14:03:34;40.25;;;20.35;;
73585;SDS011;61865;50.232;18.614;2024-03-08T14:05:56;34.70;;;21.40;;
73585;SDS011;61865;50.232;18.614;2024-03-08T14:08:21;30.70;;;18.42;;
73585;SDS011;61865;50.232;18.614;2024-03-08T14:10:44;34.55;;;19.92;;
73585;SDS011;61865;50.232;18.614;2024-03-08T14:13:09;35.80;;;19.30;;
73585;SDS011;61865;50.232;18.614;2024-03-08T14:15:32;35.55;;;21.92;;
73585;SDS011;61865;50.232;18.614;2024-03-08T14:17:54;41.22;;;20.63;;
73585;SDS011;61865;50.232;18.614;2024-03-08T14:20:17;37.40;;;19.63;;
73585;SDS011;61865;50.232;18.614;2024-03-08T14:22:39;41.03;;;21.27;;
73585;SDS011;61865;50.232;18.614;2024-03-08T14:25:03;46.58;;;20.92;;
73585;SDS011;61865;50.232;18.614;2024-03-08T14:27:26;31.05;;;18.42;;
73585;SDS011;61865;50.232;18.614;2024-03-08T14:29:49;29.95;;;18.25;;
73585;SDS011;61865;50.232;18.614;2024-03-08T14:32:11;37.85;;;19.70;;
73585;SDS011;61865;50.232;18.614;2024-03-08T14:34:34;34.75;;;18.73;;
73585;SDS011;61865;50.232;18.614;2024-03-08T15:36:19;57.42;;;26.20;;
73585;SDS011;61865;50.232;18.614;2024-03-08T15:38:42;52.42;;;23.23;;
73585;SDS011;61865;50.232;18.614;2024-03-08T15:41:06;39.13;;;22.33;;
73585;SDS011;61865;50.232;18.614;2024-03-08T15:43:32;44.85;;;22.23;;
73585;SDS011;61865;50.232;18.614;2024-03-08T15:45:56;33.78;;;21.48;;
73585;SDS011;61865;50.232;18.614;2024-03-08T15:48:19;32.30;;;21.90;;
73585;SDS011;61865;50.232;18.614;2024-03-08T15:50:41;64.10;;;28.10;;
73585;SDS011;61865;50.232;18.614;2024-03-08T15:53:05;52.15;;;25.08;;
73585;SDS011;61865;50.232;18.614;2024-03-08T15:55:27;63.45;;;26.83;;
73585;SDS011;61865;50.232;18.614;2024-03-08T15:57:49;108.00;;;36.75;;
73585;SDS011;61865;50.232;18.614;2024-03-08T16:00:12;97.10;;;35.05;;
73585;SDS011;61865;50.232;18.614;2024-03-08T16:02:39;96.07;;;33.83;;
73585;SDS011;61865;50.232;18.614;2024-03-08T16:05:02;110.28;;;39.13;;
73585;SDS011;61865;50.232;18.614;2024-03-08T16:07:27;96.95;;;35.42;;
73585;SDS011;61865;50.232;18.614;2024-03-08T16:09:51;70.40;;;27.58;;
73585;SDS011;61865;50.232;18.614;2024-03-08T16:12:13;86.70;;;30.75;;
73585;SDS011;61865;50.232;18.614;2024-03-08T16:14:36;57.92;;;27.23;;
73585;SDS011;61865;50.232;18.614;2024-03-08T16:16:59;103.10;;;34.05;;
73585;SDS011;61865;50.232;18.614;2024-03-08T16:19:21;74.75;;;29.77;;
73585;SDS011;61865;50.232;18.614;2024-03-08T16:21:44;53.63;;;22.75;;
73585;SDS011;61865;50.232;18.614;2024-03-08T16:24:06;39.88;;;21.77;;
73585;SDS011;61865;50.232;18.614;2024-03-08T16:26:30;32.33;;;20.83;;
73585;SDS011;61865;50.232;18.614;2024-03-08T16:28:55;48.13;;;24.42;;
73585;SDS011;61865;50.232;18.614;2024-03-08T16:31:17;72.10;;;28.70;;
73585;SDS011;61865;50.232;18.614;2024-03-08T16:33:39;73.53;;;31.13;;
73585;SDS011;61865;50.232;18.614;2024-03-08T16:36:02;66.32;;;28.95;;
73585;SDS011;61865;50.232;18.614;2024-03-08T16:38:23;104.70;;;31.77;;
73585;SDS011;61865;50.232;18.614;2024-03-08T16:40:48;57.28;;;26.23;;
73585;SDS011;61865;50.232;18.614;2024-03-08T16:43:13;46.67;;;22.90;;
73585;SDS011;61865;50.232;18.614;2024-03-08T16:45:37;37.60;;;22.52;;
73585;SDS011;61865;50.232;18.614;2024-03-08T16:47:59;42.15;;;20.70;;
73585;SDS011;61865;50.232;18.614;2024-03-08T16:50:23;34.58;;;20.45;;
73585;SDS011;61865;50.232;18.614;2024-03-08T16:52:47;37.13;;;21.17;;
73585;SDS011;61865;50.232;18.614;2024-03-08T16:55:11;36.53;;;22.08;;
73585;SDS011;61865;50.232;18.614;2024-03-08T16:57:36;46.15;;;21.92;;
73585;SDS011;61865;50.232;18.614;2024-03-08T17:00:00;41.92;;;22.20;;
73585;SDS011;61865;50.232;18.614;2024-03-08T17:02:29;39.43;;;22.10;;
73585;SDS011;61865;50.232;18.614;2024-03-08T17:04:52;43.90;;;24.15;;
73585;SDS011;61865;50.232;18.614;2024-03-08T17:07:14;49.78;;;22.90;;
73585;SDS011;61865;50.232;18.614;2024-03-08T17:09:36;35.30;;;22.05;;
73585;SDS011;61865;50.232;18.614;2024-03-08T17:11:59;49.15;;;24.55;;
73585;SDS011;61865;50.232;18.614;2024-03-08T17:14:24;48.08;;;25.35;;
73585;SDS011;61865;50.232;18.614;2024-03-08T17:16:50;49.53;;;26.02;;
73585;SDS011;61865;50.232;18.614;2024-03-08T17:19:12;51.60;;;27.27;;
73585;SDS011;61865;50.232;18.614;2024-03-08T17:21:34;49.97;;;25.20;;
73585;SDS011;61865;50.232;18.614;2024-03-08T17:23:57;47.70;;;24.67;;
73585;SDS011;61865;50.232;18.614;2024-03-08T17:26:19;44.05;;;25.90;;
73585;SDS011;61865;50.232;18.614;2024-03-08T17:28:42;53.35;;;25.98;;
73585;SDS011;61865;50.232;18.614;2024-03-08T17:31:06;53.80;;;27.02;;
73585;SDS011;61865;50.232;18.614;2024-03-08T17:33:33;53.40;;;25.98;;
73585;SDS011;61865;50.232;18.614;2024-03-08T17:35:57;54.63;;;26.85;;
73585;SDS011;61865;50.232;18.614;2024-03-08T17:38:19;58.90;;;26.58;;
73585;SDS011;61865;50.232;18.614;2024-03-08T17:40:44;45.65;;;24.55;;
73585;SDS011;61865;50.232;18.614;2024-03-08T17:43:08;50.15;;;25.98;;
73585;SDS011;61865;50.232;18.614;2024-03-08T17:45:31;52.50;;;27.25;;
73585;SDS011;61865;50.232;18.614;2024-03-08T17:47:55;50.53;;;28.15;;
73585;SDS011;61865;50.232;18.614;2024-03-08T17:50:18;49.65;;;28.45;;
73585;SDS011;61865;50.232;18.614;2024-03-08T17:52:41;51.42;;;29.65;;
73585;SDS011;61865;50.232;18.614;2024-03-08T17:55:04;54.25;;;30.13;;
73585;SDS011;61865;50.232;18.614;2024-03-08T17:57:29;59.08;;;30.70;;
73585;SDS011;61865;50.232;18.614;2024-03-08T17:59:51;61.33;;;31.73;;
73585;SDS011;61865;50.232;18.614;2024-03-08T18:02:14;50.78;;;27.65;;
73585;SDS011;61865;50.232;18.614;2024-03-08T18:04:36;52.05;;;28.75;;
73585;SDS011;61865;50.232;18.614;2024-03-08T20:18:10;52.63;;;27.52;;
73585;SDS011;61865;50.232;18.614;2024-03-08T20:20:32;54.90;;;28.50;;
73585;SDS011;61865;50.232;18.614;2024-03-08T20:22:58;53.00;;;27.88;;
73585;SDS011;61865;50.232;18.614;2024-03-08T20:25:21;52.88;;;28.35;;
73585;SDS011;61865;50.232;18.614;2024-03-08T20:27:46;49.90;;;27.92;;
73585;SDS011;61865;50.232;18.614;2024-03-08T20:30:12;47.20;;;27.90;;
73585;SDS011;61865;50.232;18.614;2024-03-08T20:32:41;60.58;;;31.25;;
73585;SDS011;61865;50.232;18.614;2024-03-08T20:35:05;62.30;;;31.17;;
73585;SDS011;61865;50.232;18.614;2024-03-08T20:37:30;74.13;;;31.55;;
73585;SDS011;61865;50.232;18.614;2024-03-08T20:39:53;66.47;;;33.08;;
73585;SDS011;61865;50.232;18.614;2024-03-08T20:42:16;60.28;;;31.95;;
73585;SDS011;61865;50.232;18.614;2024-03-08T20:44:38;65.82;;;31.60;;
73585;SDS011;61865;50.232;18.614;2024-03-08T20:47:01;59.20;;;30.88;;
73585;SDS011;61865;50.232;18.614;2024-03-08T20:49:24;60.30;;;31.55;;